Time;durP1;ratioP1;P1;durP2;ratioP2;P2;SDS_P1;SDS_P2;PMS_P1;PMS_P2;Temp;Humidity;BMP_temperature;BMP_pressure;BME280_temperature;BME280_humidity;BME280_pressure;Samples;Min_cycle;Max_cycle;Signal;HPM_P1;HPM_P2
2023/01/24 00:01:03;;;;;;;46.00;21.98;;;-1.30;99.90;;;;;;4985451;28;20081;-64
2023/01/24 00:03:30;;;;;;;48.75;22.83;;;-1.30;99.90;;;;;;4987994;28;20329;-62
2023/01/24 00:05:57;;;;;;;43.45;21.48;;;-1.30;99.90;;;;;;4987146;28;20232;-62
2023/01/24 00:08:23;;;;;;;47.90;22.50;;;-1.40;99.90;;;;;;4987104;28;20074;-62
2023/01/24 00:10:59;;;;;;;44.58;21.92;;;-1.40;99.90;;;;;;4985570;28;20125;-63
2023/01/24 00:13:27;;;;;;;47.38;21.58;;;-1.40;99.90;;;;;;4983747;28;20346;-62
2023/01/24 00:16:04;;;;;;;41.25;19.73;;;-1.40;99.90;;;;;;4985149;28;20061;-62
2023/01/24 00:18:32;;;;;;;39.63;19.83;;;-1.40;99.90;;;;;;4984606;28;20056;-63
2023/01/24 00:21:09;;;;;;;36.67;19.65;;;-1.40;99.90;;;;;;4982770;28;20304;-63
2023/01/24 00:23:36;;;;;;;39.67;18.90;;;-1.50;99.90;;;;;;4985891;28;20050;-62
2023/01/24 00:26:04;;;;;;;36.97;18.38;;;-1.70;99.90;;;;;;4984204;28;20054;-63
2023/01/24 00:28:30;;;;;;;39.92;18.45;;;-1.70;99.90;;;;;;4983763;28;20133;-62
2023/01/24 00:30:57;;;;;;;37.85;19.15;;;-1.80;99.90;;;;;;4983586;28;20110;-62
2023/01/24 00:33:24;;;;;;;37.03;17.75;;;-2.00;99.90;;;;;;4986049;28;20199;-65
2023/01/24 00:35:51;;;;;;;30.38;15.93;;;-2.10;99.90;;;;;;4987300;28;20181;-62
2023/01/24 00:38:19;;;;;;;38.00;18.35;;;-2.20;99.90;;;;;;4981206;28;20042;-62
2023/01/24 00:40:47;;;;;;;31.35;16.75;;;-2.30;99.90;;;;;;4982744;28;20049;-63
2023/01/24 00:43:13;;;;;;;33.60;16.30;;;-2.40;99.90;;;;;;4982904;28;20396;-63
2023/01/24 00:45:40;;;;;;;;;;;-2.40;99.90;;;;;;4985903;28;20038;-62
2023/01/24 00:48:09;;;;;;;38.00;17.20;;;-2.50;99.90;;;;;;4989180;28;19925;-64
2023/01/24 00:50:35;;;;;;;33.33;17.35;;;-2.50;99.90;;;;;;4984216;28;20092;-64
2023/01/24 00:53:03;;;;;;;31.55;16.60;;;-2.50;99.90;;;;;;4981995;28;20121;-65
2023/01/24 00:55:30;;;;;;;31.92;15.65;;;-2.50;99.90;;;;;;4984652;28;20050;-63
2023/01/24 00:57:57;;;;;;;31.48;16.77;;;-2.60;99.90;;;;;;4976895;28;20149;-63
2023/01/24 01:00:24;;;;;;;32.72;18.67;;;-2.60;99.90;;;;;;4987209;28;20065;-63
2023/01/24 01:02:51;;;;;;;33.20;17.23;;;-2.60;99.90;;;;;;4983709;28;20049;-62
2023/01/24 01:05:18;;;;;;;33.60;16.20;;;-2.70;99.90;;;;;;4984186;28;20037;-63
2023/01/24 01:07:45;;;;;;;29.05;17.02;;;-2.70;99.90;;;;;;5002117;28;20038;-63
2023/01/24 01:10:12;;;;;;;;;;;-2.80;99.90;;;;;;4981430;28;20129;-63
2023/01/24 01:12:39;;;;;;;32.25;15.90;;;-2.80;99.90;;;;;;4974987;28;20031;-63
2023/01/24 01:15:06;;;;;;;;;;;-2.80;99.90;;;;;;4997879;28;20377;-62
2023/01/24 01:17:33;;;;;;;36.57;18.20;;;-2.90;99.90;;;;;;4983760;28;20067;-62
2023/01/24 01:19:59;;;;;;;;;;;-2.90;99.90;;;;;;4981184;28;20884;-62
2023/01/24 01:22:26;;;;;;;37.05;17.15;;;-2.90;99.90;;;;;;4973815;28;19957;-62
2023/01/24 01:24:53;;;;;;;35.35;19.23;;;-2.90;99.90;;;;;;4986581;28;20045;-63
2023/01/24 01:27:20;;;;;;;38.95;19.75;;;-2.90;99.90;;;;;;4970675;28;20230;-63
2023/01/24 01:29:46;;;;;;;39.13;18.67;;;-2.90;99.90;;;;;;4985415;28;20340;-62
2023/01/24 01:32:13;;;;;;;33.47;15.93;;;-2.90;99.90;;;;;;4989580;28;20121;-62
2023/01/24 01:34:40;;;;;;;;;;;-2.90;99.90;;;;;;4983222;28;20107;-63
2023/01/24 01:37:06;;;;;;;34.75;17.10;;;-2.90;99.90;;;;;;4981742;28;19925;-63
2023/01/24 01:39:33;;;;;;;;;;;-2.90;99.90;;;;;;4988463;28;20126;-63
2023/01/24 01:41:59;;;;;;;37.38;18.05;;;-2.90;99.90;;;;;;4987109;28;19921;-63
2023/01/24 01:44:40;;;;;;;37.03;17.35;;;-2.90;99.90;;;;;;4982969;28;20274;-63
2023/01/24 01:47:16;;;;;;;37.90;17.92;;;-2.90;99.90;;;;;;4985591;28;20357;-63
2023/01/24 01:49:48;;;;;;;35.90;18.23;;;-2.90;99.90;;;;;;4985335;28;20049;-63
2023/01/24 01:52:15;;;;;;;34.67;16.90;;;-3.00;99.90;;;;;;4984167;28;20076;-62
2023/01/24 01:54:44;;;;;;;32.95;17.90;;;-3.00;99.90;;;;;;4987769;28;20417;-62
2023/01/24 01:57:19;;;;;;;35.85;18.05;;;-3.00;99.90;;;;;;4970426;28;20288;-63
2023/01/24 02:00:09;;;;;;;38.90;19.30;;;-3.00;99.90;;;;;;4976462;28;20064;-62
2023/01/24 02:02:43;;;;;;;31.92;16.83;;;-3.00;99.90;;;;;;4984986;28;20046;-63
2023/01/24 02:05:13;;;;;;;32.88;17.58;;;-3.00;99.90;;;;;;4987256;28;20130;-63
2023/01/24 02:07:47;;;;;;;37.17;18.23;;;-3.00;99.90;;;;;;4990227;28;20052;-62
2023/01/24 02:10:17;;;;;;;32.55;15.73;;;-3.00;99.90;;;;;;4988041;28;20841;-64
2023/01/24 02:12:47;;;;;;;35.92;18.85;;;-3.00;99.90;;;;;;4985675;28;20927;-63
2023/01/24 02:18:05;;;;;;;34.30;16.48;;;-3.00;99.90;;;;;;4983539;28;20050;-63
2023/01/24 02:20:39;;;;;;;34.28;17.65;;;-3.00;99.90;;;;;;4985566;28;20688;-63
2023/01/24 02:23:38;;;;;;;40.80;19.83;;;-3.00;99.90;;;;;;4984316;28;20571;-63
2023/01/24 02:26:13;;;;;;;42.45;20.60;;;-3.10;99.90;;;;;;4976308;28;20038;-63
2023/01/24 02:28:55;;;;;;;32.60;17.23;;;-3.10;99.90;;;;;;4980918;28;20145;-63
2023/01/24 02:31:23;;;;;;;34.50;19.05;;;-3.10;99.90;;;;;;4984919;28;20045;-63
2023/01/24 02:33:50;;;;;;;33.60;17.90;;;-3.10;99.90;;;;;;4984000;28;20050;-62
2023/01/24 02:36:31;;;;;;;38.30;19.50;;;-3.10;99.90;;;;;;4991404;28;20491;-63
2023/01/24 02:39:13;;;;;;;33.33;17.90;;;-3.10;99.90;;;;;;4986864;28;20651;-62
2023/01/24 02:41:50;;;;;;;34.63;18.60;;;-3.20;99.90;;;;;;4987637;28;20057;-63
2023/01/24 02:44:22;;;;;;;34.53;16.85;;;-3.20;99.90;;;;;;4986237;28;20112;-64
2023/01/24 02:46:49;;;;;;;34.28;19.23;;;-3.20;99.90;;;;;;4989488;28;20070;-62
2023/01/24 02:49:15;;;;;;;;;;;-3.20;99.90;;;;;;4986251;28;20041;-62
2023/01/24 02:54:27;;;;;;;36.47;18.48;;;-3.20;99.90;;;;;;4983564;28;20395;-63
2023/01/24 02:59:40;;;;;;;37.13;18.52;;;-3.20;99.90;;;;;;5006554;27;19925;-63
2023/01/24 03:02:07;;;;;;;33.20;16.92;;;-3.30;99.90;;;;;;4981922;28;20458;-63
2023/01/24 03:04:34;;;;;;;35.13;18.45;;;-3.30;99.90;;;;;;4989788;28;20050;-64
2023/01/24 03:07:01;;;;;;;31.48;17.08;;;-3.30;99.90;;;;;;4984366;28;20509;-62
2023/01/24 03:09:34;;;;;;;36.35;18.45;;;-3.30;99.90;;;;;;4987104;28;20199;-62
2023/01/24 03:34:45;;;;;;;27.63;15.55;;;-3.70;99.90;;;;;;4983294;28;20037;-62
2023/01/24 03:37:14;;;;;;;32.38;15.40;;;-3.80;99.90;;;;;;4983074;28;20558;-63
2023/01/24 03:39:53;;;;;;;31.92;16.80;;;-3.80;99.90;;;;;;4985633;28;20077;-63
2023/01/24 03:42:20;;;;;;;35.65;17.77;;;-3.90;99.90;;;;;;4982626;28;20046;-62
2023/01/24 03:44:47;;;;;;;31.75;16.77;;;-3.90;99.90;;;;;;4989171;28;20160;-63
2023/01/24 03:47:14;;;;;;;30.98;15.50;;;-3.90;99.90;;;;;;4985898;28;20492;-62
2023/01/24 03:52:29;;;;;;;38.05;15.90;;;-3.90;99.90;;;;;;4979504;28;20069;-63
2023/01/24 03:55:00;;;;;;;28.73;15.65;;;-4.00;99.90;;;;;;4986208;28;20267;-63
2023/01/24 03:57:29;;;;;;;30.70;14.90;;;-4.00;99.90;;;;;;4978745;28;20049;-63
2023/01/24 03:59:59;;;;;;;38.08;17.13;;;-4.00;99.90;;;;;;4983346;28;20282;-63
2023/01/24 04:02:27;;;;;;;36.33;17.08;;;-4.00;99.90;;;;;;4985468;28;20158;-62
2023/01/24 04:05:12;;;;;;;33.10;17.27;;;-4.00;99.90;;;;;;4983751;28;20038;-63
2023/01/24 04:07:39;;;;;;;28.30;14.60;;;-4.00;99.90;;;;;;4981931;28;20061;-63
2023/01/24 04:10:08;;;;;;;36.17;17.77;;;-4.00;99.90;;;;;;4972860;28;20327;-63
2023/01/24 04:12:42;;;;;;;28.75;15.15;;;-4.00;99.90;;;;;;5065452;27;20267;-63
2023/01/24 04:15:19;;;;;;;30.90;15.30;;;-4.00;99.90;;;;;;4987678;28;20230;-63
2023/01/24 04:17:56;;;;;;;27.27;14.30;;;-4.00;99.90;;;;;;4983516;28;20053;-62
2023/01/24 04:20:24;;;;;;;32.05;15.70;;;-4.00;99.90;;;;;;4985171;28;20116;-65
2023/01/24 04:22:51;;;;;;;33.50;17.77;;;-4.00;99.90;;;;;;4987555;28;20094;-63
2023/01/24 04:25:18;;;;;;;30.70;16.23;;;-4.00;99.90;;;;;;4992963;28;20121;-63
2023/01/24 04:27:47;;;;;;;27.75;15.32;;;-4.00;99.90;;;;;;4996795;28;20367;-62
2023/01/24 04:30:20;;;;;;;33.47;15.55;;;-4.00;99.90;;;;;;4998652;28;20393;-62
2023/01/24 04:32:50;;;;;;;29.63;16.10;;;-4.10;99.90;;;;;;4982981;28;20352;-63
2023/01/24 04:35:25;;;;;;;31.98;16.45;;;-4.10;99.90;;;;;;4985959;28;20050;-63
2023/01/24 04:38:02;;;;;;;31.83;15.80;;;-4.20;99.90;;;;;;4985320;28;20073;-63
2023/01/24 04:41:00;;;;;;;27.85;14.77;;;-4.20;99.90;;;;;;4981209;28;20053;-62
2023/01/24 04:43:33;;;;;;;31.88;17.13;;;-4.30;99.90;;;;;;4975487;28;20102;-62
2023/01/24 04:46:00;;;;;;;33.70;17.00;;;-4.30;99.90;;;;;;4988851;28;20056;-63
2023/01/24 04:48:42;;;;;;;31.08;16.20;;;-4.30;99.90;;;;;;4982274;28;20268;-63
2023/01/24 04:51:09;;;;;;;34.47;15.07;;;-4.30;99.90;;;;;;4982774;28;20530;-62
2023/01/24 04:53:40;;;;;;;31.45;16.70;;;-4.30;99.90;;;;;;4984203;28;20065;-62
2023/01/24 04:56:11;;;;;;;36.35;16.88;;;-4.40;99.90;;;;;;4986288;28;20388;-62
2023/01/24 04:58:38;;;;;;;31.67;15.30;;;-4.40;99.90;;;;;;4999811;28;20056;-63
2023/01/24 05:01:05;;;;;;;32.03;15.50;;;-4.40;99.90;;;;;;4983882;28;20117;-63
2023/01/24 05:03:37;;;;;;;28.88;15.23;;;-4.50;99.90;;;;;;4987229;28;20352;-62
2023/01/24 05:06:04;;;;;;;28.67;14.60;;;-4.50;99.90;;;;;;4987997;28;20037;-62
2023/01/24 05:08:33;;;;;;;30.73;16.33;;;-4.50;99.90;;;;;;4985186;28;20563;-63
2023/01/24 05:11:04;;;;;;;30.08;16.05;;;-4.50;99.90;;;;;;4976784;28;20127;-62
2023/01/24 05:13:35;;;;;;;30.17;15.13;;;-4.50;99.90;;;;;;4985558;28;20870;-63
2023/01/24 05:16:03;;;;;;;31.00;15.13;;;-4.50;99.90;;;;;;4984834;28;20519;-63
2023/01/24 05:18:30;;;;;;;30.83;17.05;;;-4.50;99.90;;;;;;5002971;28;20042;-65
2023/01/24 05:21:05;;;;;;;34.55;16.15;;;-4.60;99.90;;;;;;4985955;28;20496;-62
2023/01/24 05:23:31;;;;;;;32.92;18.02;;;-4.60;99.90;;;;;;5001553;27;20057;-64
2023/01/24 05:25:59;;;;;;;36.35;17.38;;;-4.60;99.90;;;;;;4987007;28;20142;-64
2023/01/24 05:28:28;;;;;;;29.20;14.82;;;-4.60;99.90;;;;;;4990195;28;20370;-64
2023/01/24 05:31:04;;;;;;;35.17;17.88;;;-4.60;99.90;;;;;;4989174;28;20044;-64
2023/01/24 05:33:31;;;;;;;32.20;15.73;;;-4.60;99.90;;;;;;4985863;28;20623;-63
2023/01/24 05:36:16;;;;;;;33.03;16.35;;;-4.70;99.90;;;;;;4979021;28;20034;-63
2023/01/24 05:38:45;;;;;;;34.38;16.17;;;-4.70;99.90;;;;;;4987859;28;20033;-63
2023/01/24 05:41:18;;;;;;;30.33;16.13;;;-4.80;99.90;;;;;;4990781;28;20619;-64
2023/01/24 05:43:46;;;;;;;30.92;14.98;;;-4.80;99.90;;;;;;5001546;27;20039;-64
2023/01/24 05:46:16;;;;;;;30.15;15.35;;;-4.90;99.90;;;;;;5089577;27;20494;-63
2023/01/24 05:48:52;;;;;;;33.60;15.60;;;-4.90;99.90;;;;;;5007034;28;20221;-64
2023/01/24 05:51:19;;;;;;;29.17;15.00;;;-4.90;99.90;;;;;;5008512;27;20035;-64
2023/01/24 05:53:47;;;;;;;34.50;16.52;;;-4.90;99.90;;;;;;5002393;27;20040;-63
2023/01/24 05:56:33;;;;;;;33.42;16.23;;;-4.90;99.90;;;;;;4991912;28;20381;-63
2023/01/24 05:59:01;;;;;;;32.60;16.05;;;-4.90;99.90;;;;;;4993511;28;20044;-64
2023/01/24 06:01:28;;;;;;;30.20;15.43;;;-4.90;99.90;;;;;;4999545;28;20093;-65
2023/01/24 06:03:56;;;;;;;30.52;15.57;;;-4.90;99.90;;;;;;5007629;27;20301;-64
2023/01/24 06:06:24;;;;;;;28.77;15.25;;;-5.00;99.90;;;;;;5087873;27;20036;-64
2023/01/24 06:08:51;;;;;;;35.55;16.67;;;-4.90;99.90;;;;;;5002450;27;20426;-64
2023/01/24 06:11:22;;;;;;;28.00;14.40;;;-4.90;99.90;;;;;;5086646;27;20080;-64
2023/01/24 06:13:59;;;;;;;33.30;16.48;;;-4.90;99.90;;;;;;5082709;27;20060;-64
2023/01/24 06:16:26;;;;;;;32.53;15.68;;;-4.90;99.90;;;;;;5098889;27;20134;-64
2023/01/24 06:18:54;;;;;;;28.50;14.73;;;-4.80;99.90;;;;;;5096607;27;20645;-64
2023/01/24 06:21:28;;;;;;;36.63;17.45;;;-4.80;99.90;;;;;;5093136;27;20110;-65
2023/01/24 06:23:55;;;;;;;35.42;17.50;;;-4.80;99.90;;;;;;5092046;27;20481;-64
2023/01/24 06:26:32;;;;;;;25.83;12.15;;;-4.80;99.90;;;;;;5092729;27;20039;-64
2023/01/24 06:28:59;;;;;;;33.38;15.52;;;-4.80;99.90;;;;;;5111938;27;20266;-65
2023/01/24 06:31:52;;;;;;;33.70;16.85;;;-4.80;99.90;;;;;;5083842;27;20252;-64
2023/01/24 06:34:50;;;;;;;32.97;15.85;;;-4.80;99.90;;;;;;5111484;27;20293;-64
2023/01/24 06:37:36;;;;;;;30.30;14.30;;;-4.80;99.90;;;;;;5114210;27;20043;-64
2023/01/24 06:40:10;;;;;;;30.10;15.02;;;-4.80;99.90;;;;;;5108092;27;20039;-64
2023/01/24 06:42:37;;;;;;;26.48;13.73;;;-4.80;99.90;;;;;;5109062;27;20039;-64
2023/01/24 06:45:05;;;;;;;33.92;16.13;;;-4.80;99.90;;;;;;5109010;27;20446;-65
2023/01/24 06:47:32;;;;;;;36.10;16.70;;;-4.80;99.90;;;;;;5109159;27;20130;-64
2023/01/24 06:49:59;;;;;;;29.90;15.60;;;-4.80;99.90;;;;;;5110915;27;20078;-64
2023/01/24 06:52:25;;;;;;;33.45;15.80;;;-4.80;99.90;;;;;;5112245;27;20059;-64
2023/01/24 06:54:52;;;;;;;33.30;16.13;;;-4.80;99.90;;;;;;5112638;27;20122;-64
2023/01/24 06:57:19;;;;;;;26.10;12.90;;;-4.90;99.90;;;;;;5113005;27;20043;-64
2023/01/24 06:59:46;;;;;;;31.73;15.18;;;-4.90;99.90;;;;;;5109193;27;20043;-64
2023/01/24 07:02:12;;;;;;;27.55;14.90;;;-4.90;99.90;;;;;;5106957;27;20038;-64
2023/01/24 07:04:39;;;;;;;26.77;14.60;;;-4.90;99.90;;;;;;5108457;27;20529;-64
2023/01/24 07:07:06;;;;;;;29.02;13.85;;;-4.90;99.90;;;;;;5117496;27;20060;-64
2023/01/24 07:09:33;;;;;;;29.83;15.75;;;-5.00;99.90;;;;;;5107176;27;20039;-50
2023/01/24 07:12:00;;;;;;;29.58;16.17;;;-5.00;99.90;;;;;;5100530;27;20066;-50
2023/01/24 07:14:26;;;;;;;29.80;15.38;;;-5.00;99.90;;;;;;5106802;27;20259;-48
2023/01/24 07:16:55;;;;;;;32.40;16.13;;;-5.10;99.90;;;;;;5112336;27;20275;-55
2023/01/24 07:19:23;;;;;;;30.88;14.93;;;-5.10;99.90;;;;;;5093777;27;20039;-49
2023/01/24 07:21:53;;;;;;;30.10;15.25;;;-5.20;99.90;;;;;;5106525;27;20050;-49
2023/01/24 07:24:23;;;;;;;34.15;16.65;;;-5.20;99.90;;;;;;5109934;27;20334;-50
2023/01/24 07:26:50;;;;;;;37.10;19.13;;;-5.20;99.90;;;;;;5111917;27;20118;-50
2023/01/24 07:29:21;;;;;;;31.48;15.20;;;-5.20;99.90;;;;;;5109872;27;20279;-50
2023/01/24 07:31:48;;;;;;;39.10;17.65;;;-5.20;99.90;;;;;;5109194;27;20222;-50
2023/01/24 07:34:16;;;;;;;33.22;16.33;;;-5.20;99.90;;;;;;5107579;27;20514;-49
2023/01/24 07:36:47;;;;;;;32.83;15.65;;;-5.20;99.90;;;;;;5107247;27;20059;-49
2023/01/24 07:39:15;;;;;;;36.15;17.33;;;-5.10;99.90;;;;;;5109222;27;20043;-50
2023/01/24 07:41:43;;;;;;;32.35;16.20;;;-5.20;99.90;;;;;;5112580;27;20200;-50
2023/01/24 07:44:12;;;;;;;32.05;15.23;;;-5.10;99.90;;;;;;5107142;27;20027;-49
2023/01/24 07:46:39;;;;;;;31.83;15.30;;;-5.20;99.90;;;;;;5110347;27;20476;-49
2023/01/24 07:49:05;;;;;;;32.42;15.18;;;-5.20;99.90;;;;;;5108139;27;20392;-49
2023/01/24 07:51:32;;;;;;;31.98;16.02;;;-5.20;99.90;;;;;;5106697;27;20544;-48
2023/01/24 07:53:59;;;;;;;35.63;16.90;;;-5.20;99.90;;;;;;5111191;27;20032;-49
2023/01/24 07:56:25;;;;;;;34.20;17.23;;;-5.10;99.90;;;;;;5094047;27;20039;-48
2023/01/24 07:58:53;;;;;;;32.92;15.73;;;-5.00;99.90;;;;;;5100350;27;20681;-48
2023/01/24 08:01:21;;;;;;;33.13;15.95;;;-4.80;99.90;;;;;;5100880;27;20324;-48
2023/01/24 08:03:49;;;;;;;31.48;15.02;;;-4.50;99.90;;;;;;5094990;27;21070;-51
2023/01/24 08:06:17;;;;;;;39.60;17.90;;;-4.20;99.90;;;;;;5100486;27;20825;-48
2023/01/24 08:08:44;;;;;;;34.88;15.68;;;-3.90;99.90;;;;;;5099707;27;20119;-50
2023/01/24 08:11:13;;;;;;;40.55;18.55;;;-3.60;99.90;;;;;;5098249;27;20118;-49
2023/01/24 08:13:40;;;;;;;33.83;16.70;;;-3.20;99.90;;;;;;5098928;27;20078;-47
2023/01/24 08:16:07;;;;;;;31.83;16.45;;;-2.80;99.90;;;;;;5094299;27;20043;-49
2023/01/24 08:18:34;;;;;;;33.05;16.17;;;-2.40;99.90;;;;;;5097148;27;20050;-54
2023/01/24 08:21:01;;;;;;;35.53;17.38;;;-2.00;99.90;;;;;;5083824;27;20274;-56
2023/01/24 08:23:28;;;;;;;28.20;15.55;;;-1.60;99.90;;;;;;5085943;27;20324;-68
2023/01/24 08:25:56;;;;;;;;;;;-1.30;99.90;;;;;;5088167;27;20536;-54
2023/01/24 08:28:23;;;;;;;34.00;16.05;;;-0.90;99.90;;;;;;5089311;27;19931;-57
2023/01/24 08:30:50;;;;;;;29.98;14.57;;;-0.50;99.90;;;;;;5089068;27;20112;-56
2023/01/24 08:33:19;;;;;;;31.35;16.25;;;0.00;99.90;;;;;;5087054;27;20035;-56
2023/01/24 08:35:46;;;;;;;28.75;16.38;;;0.40;99.90;;;;;;5088367;27;20046;-61
2023/01/24 08:38:14;;;;;;;29.52;15.52;;;0.70;99.90;;;;;;5087024;27;20039;-56
2023/01/24 08:40:42;;;;;;;36.22;15.88;;;1.00;99.90;;;;;;5086710;27;20202;-49
2023/01/24 08:43:16;;;;;;;30.92;15.23;;;1.30;99.90;;;;;;5089049;27;20432;-62
2023/01/24 08:45:43;;;;;;;26.58;15.10;;;1.50;99.90;;;;;;5068633;27;20110;-48
2023/01/24 08:48:10;;;;;;;26.52;14.07;;;1.80;99.90;;;;;;5088663;27;20035;-52
2023/01/24 08:50:36;;;;;;;;;;;2.10;99.90;;;;;;5089030;27;20324;-50
2023/01/24 08:53:03;;;;;;;24.27;14.27;;;2.30;99.90;;;;;;5089926;27;19923;-49
2023/01/24 08:55:30;;;;;;;;;;;2.50;98.40;;;;;;5090820;27;20385;-51
2023/01/24 08:58:03;;;;;;;22.75;12.02;;;2.70;97.40;;;;;;5087853;27;20188;-50
2023/01/24 09:00:30;;;;;;;26.75;14.77;;;2.80;94.50;;;;;;5087569;27;20082;-47
2023/01/24 09:03:00;;;;;;;23.45;14.35;;;2.90;93.50;;;;;;5069228;27;20035;-48
2023/01/24 09:05:29;;;;;;;28.67;15.18;;;3.00;93.20;;;;;;5089322;27;20200;-46
2023/01/24 09:07:57;;;;;;;28.13;14.85;;;2.90;90.70;;;;;;5075174;27;20247;-46
2023/01/24 09:10:24;;;;;;;25.83;14.35;;;2.70;91.60;;;;;;5076394;28;20142;-47
2023/01/24 09:12:50;;;;;;;24.90;14.63;;;2.70;93.10;;;;;;5089556;27;20043;-47
2023/01/24 09:15:17;;;;;;;;;;;2.70;93.60;;;;;;5085060;27;20047;-48
2023/01/24 09:17:44;;;;;;;26.00;14.02;;;2.80;92.70;;;;;;5087904;27;19946;-48
2023/01/24 09:20:11;;;;;;;;;;;2.90;92.40;;;;;;5090420;27;20054;-46
2023/01/24 09:22:38;;;;;;;28.40;14.53;;;3.10;91.50;;;;;;5089742;27;20007;-48
2023/01/24 09:25:07;;;;;;;25.58;13.65;;;3.30;92.10;;;;;;5090351;27;20288;-48
2023/01/24 09:27:35;;;;;;;29.10;15.23;;;3.70;92.10;;;;;;5088563;27;20047;-49
2023/01/24 09:30:06;;;;;;;29.98;16.25;;;4.00;88.10;;;;;;5084395;27;20380;-59
2023/01/24 09:32:34;;;;;;;26.10;15.40;;;4.10;85.20;;;;;;5088356;27;20414;-47
2023/01/24 09:35:01;;;;;;;29.58;15.77;;;4.20;82.40;;;;;;5089717;27;20043;-47
2023/01/24 09:37:28;;;;;;;29.88;16.65;;;4.40;83.90;;;;;;5053423;28;20751;-47
2023/01/24 09:39:55;;;;;;;;;;;4.70;83.20;;;;;;5084530;27;20039;-46
2023/01/24 09:42:41;;;;;;;28.88;13.32;;;4.90;81.60;;;;;;5067989;28;20009;-49
2023/01/24 09:45:24;;;;;;;27.90;14.48;;;4.90;78.40;;;;;;5064623;28;20602;-46
2023/01/24 09:47:56;;;;;;;28.58;15.50;;;4.90;78.00;;;;;;5086160;27;20324;-59
2023/01/24 09:50:47;;;;;;;29.77;15.60;;;4.60;76.50;;;;;;5086608;27;20797;-60
2023/01/24 09:53:22;;;;;;;26.67;14.90;;;4.40;77.50;;;;;;5088407;27;20035;-50
2023/01/24 09:55:50;;;;;;;23.67;14.25;;;4.10;79.00;;;;;;5088989;27;20531;-51
2023/01/24 09:58:30;;;;;;;28.52;14.48;;;3.90;81.80;;;;;;5069084;27;20444;-48
2023/01/24 10:01:05;;;;;;;26.27;15.20;;;3.70;84.70;;;;;;5078829;27;20122;-49
2023/01/24 10:03:33;;;;;;;26.73;15.70;;;3.50;84.40;;;;;;5089459;27;20218;-48
2023/01/24 10:06:09;;;;;;;25.95;15.18;;;3.10;85.20;;;;;;5089046;27;20500;-49
2023/01/24 10:09:12;;;;;;;26.13;14.50;;;2.80;88.30;;;;;;5090710;27;20139;-47
2023/01/24 10:11:58;;;;;;;29.48;16.27;;;2.70;90.40;;;;;;5087182;27;20802;-47
2023/01/24 10:14:42;;;;;;;26.45;15.23;;;2.60;91.80;;;;;;5085779;27;20044;-53
2023/01/24 10:17:44;;;;;;;31.52;16.40;;;2.60;93.00;;;;;;5070969;27;20047;-49
2023/01/24 10:20:48;;;;;;;28.40;15.88;;;2.70;93.50;;;;;;5088164;27;20047;-45
2023/01/24 10:23:32;;;;;;;30.35;15.07;;;2.90;93.60;;;;;;5089504;27;20046;-49
2023/01/24 10:26:22;;;;;;;27.90;14.70;;;3.10;92.80;;;;;;5089403;27;20139;-46
2023/01/24 10:28:52;;;;;;;26.08;14.25;;;3.20;93.20;;;;;;5086599;27;20047;-47
2023/01/24 10:31:41;;;;;;;25.15;15.65;;;3.20;92.30;;;;;;5089995;27;20134;-49
2023/01/24 10:34:39;;;;;;;26.73;14.50;;;3.20;93.00;;;;;;5070337;27;20357;-56
2023/01/24 10:37:13;;;;;;;28.45;14.38;;;3.00;92.30;;;;;;5088922;27;20585;-49
2023/01/24 10:39:40;;;;;;;24.08;13.98;;;2.80;91.70;;;;;;5085158;27;20043;-49
2023/01/24 10:42:21;;;;;;;;;;;2.70;93.70;;;;;;5088737;27;20510;-47
2023/01/24 10:44:49;;;;;;;23.00;14.65;;;2.50;94.90;;;;;;5091271;27;19938;-47
2023/01/24 10:47:46;;;;;;;22.85;13.77;;;2.30;95.90;;;;;;5092797;27;20047;-45
2023/01/24 10:50:16;;;;;;;26.20;15.85;;;2.20;96.30;;;;;;5092207;27;20039;-47
2023/01/24 10:52:46;;;;;;;26.70;14.30;;;2.10;98.00;;;;;;5090616;27;20067;-46
2023/01/24 10:55:34;;;;;;;24.08;13.23;;;2.00;99.10;;;;;;5092441;27;20041;-47
2023/01/24 10:58:15;;;;;;;30.02;14.90;;;1.90;98.90;;;;;;5071740;27;20035;-47
2023/01/24 11:00:43;;;;;;;23.95;14.05;;;1.80;99.90;;;;;;5091995;27;20358;-46
2023/01/24 11:03:20;;;;;;;23.90;13.77;;;1.70;99.90;;;;;;5091949;27;20632;-46
2023/01/24 11:05:52;;;;;;;26.27;15.60;;;1.60;99.90;;;;;;5092237;27;20051;-48
2023/01/24 11:08:33;;;;;;;25.17;14.07;;;1.50;99.90;;;;;;5067635;28;20131;-48
2023/01/24 11:11:00;;;;;;;29.83;14.70;;;1.40;99.90;;;;;;5096058;27;20038;-47
2023/01/24 11:13:36;;;;;;;22.63;13.10;;;1.40;99.90;;;;;;5091617;27;20160;-48
2023/01/24 11:16:19;;;;;;;28.73;15.90;;;1.40;99.90;;;;;;5092676;27;20050;-48
2023/01/24 11:18:57;;;;;;;27.30;14.73;;;1.30;99.90;;;;;;5091899;27;20534;-47
2023/01/24 11:21:24;;;;;;;24.77;15.13;;;1.20;99.90;;;;;;5072641;27;20580;-49
2023/01/24 11:24:06;;;;;;;23.88;14.18;;;1.20;99.90;;;;;;5094251;27;20380;-48
2023/01/24 11:26:51;;;;;;;27.65;14.25;;;1.10;99.90;;;;;;5091895;27;20456;-48
2023/01/24 11:29:19;;;;;;;28.83;15.63;;;1.20;99.90;;;;;;5090205;27;20031;-49
2023/01/24 11:31:51;;;;;;;23.77;14.40;;;1.20;99.90;;;;;;5092678;27;20340;-47
2023/01/24 11:34:45;;;;;;;27.63;14.88;;;1.10;99.90;;;;;;5092830;27;20583;-49
2023/01/24 11:37:37;;;;;;;29.88;14.27;;;1.10;99.90;;;;;;5090589;27;20422;-47
2023/01/24 11:40:39;;;;;;;26.95;14.90;;;1.10;99.90;;;;;;5088327;27;20047;-48
2023/01/24 11:43:37;;;;;;;24.65;14.57;;;1.10;99.90;;;;;;5072255;27;20067;-48
2023/01/24 11:46:24;;;;;;;23.92;14.57;;;1.00;99.90;;;;;;5093805;27;20470;-49
2023/01/24 11:48:59;;;;;;;25.90;14.32;;;1.00;99.90;;;;;;5089058;27;20058;-47
2023/01/24 11:51:28;;;;;;;28.60;15.07;;;1.10;99.90;;;;;;5090118;27;20550;-48
2023/01/24 11:54:16;;;;;;;31.85;16.83;;;1.10;99.90;;;;;;5088625;27;20159;-48
2023/01/24 11:56:59;;;;;;;24.65;14.90;;;1.20;99.90;;;;;;5092896;27;20758;-47
2023/01/24 11:59:32;;;;;;;27.17;16.45;;;1.30;99.90;;;;;;5090323;27;20138;-49
2023/01/24 12:02:11;;;;;;;27.50;15.50;;;1.50;99.90;;;;;;5089370;27;20327;-48
2023/01/24 12:04:44;;;;;;;24.75;14.48;;;1.60;99.90;;;;;;5090036;27;20716;-51
2023/01/24 12:07:19;;;;;;;26.55;14.30;;;1.70;99.90;;;;;;5090761;27;20151;-48
2023/01/24 12:10:04;;;;;;;26.02;13.82;;;1.70;99.90;;;;;;5091677;27;20062;-51
2023/01/24 12:12:55;;;;;;;27.92;15.48;;;1.90;99.90;;;;;;5088242;27;20043;-51
2023/01/24 12:15:27;;;;;;;28.48;14.60;;;2.20;99.90;;;;;;5091715;27;20078;-51
2023/01/24 12:18:12;;;;;;;28.38;15.40;;;2.60;99.90;;;;;;5090551;27;20054;-49
2023/01/24 12:21:05;;;;;;;26.40;14.10;;;3.10;99.90;;;;;;5088541;27;20512;-47
2023/01/24 12:23:55;;;;;;;25.83;13.85;;;3.60;99.90;;;;;;5090052;27;20131;-47
2023/01/24 12:26:57;;;;;;;25.85;16.73;;;4.00;99.90;;;;;;5088737;27;20046;-47
2023/01/24 12:29:39;;;;;;;23.83;13.43;;;4.30;99.90;;;;;;5074041;27;21029;-47
2023/01/24 12:32:18;;;;;;;23.30;13.57;;;4.50;99.90;;;;;;5088891;27;20143;-47
2023/01/24 12:35:02;;;;;;;24.27;13.25;;;4.60;99.90;;;;;;5089113;27;20974;-47
2023/01/24 12:37:44;;;;;;;18.65;12.05;;;4.70;99.90;;;;;;5068372;27;20055;-51
2023/01/24 12:40:14;;;;;;;26.90;14.88;;;4.80;99.90;;;;;;5082058;27;20192;-49
2023/01/24 12:42:58;;;;;;;24.90;13.98;;;4.90;99.90;;;;;;5085357;27;20054;-48
2023/01/24 12:45:31;;;;;;;25.58;13.75;;;5.00;99.90;;;;;;5069813;27;20045;-49
2023/01/24 12:48:26;;;;;;;21.13;12.40;;;5.10;99.90;;;;;;5077033;27;20047;-48
2023/01/24 12:51:03;;;;;;;27.52;13.55;;;5.20;99.90;;;;;;5070509;27;20055;-48
2023/01/24 12:53:39;;;;;;;23.90;13.40;;;5.20;99.90;;;;;;5067084;27;20760;-49
2023/01/24 12:56:13;;;;;;;26.33;15.32;;;5.10;99.90;;;;;;5088191;27;20134;-48
2023/01/24 12:58:43;;;;;;;24.80;14.20;;;5.10;99.90;;;;;;5077112;27;20055;-48
2023/01/24 13:01:16;;;;;;;25.80;14.40;;;5.00;99.90;;;;;;5071083;28;20890;-47
2023/01/24 13:03:53;;;;;;;23.33;15.20;;;4.70;99.90;;;;;;5088262;27;20047;-50
2023/01/24 13:06:47;;;;;;;24.83;13.48;;;4.30;99.90;;;;;;5087594;27;20115;-48
2023/01/24 13:09:26;;;;;;;24.40;12.63;;;3.90;99.90;;;;;;5055423;28;20079;-47
2023/01/24 13:11:55;;;;;;;24.92;13.65;;;3.70;99.90;;;;;;5088350;27;20058;-50
2023/01/24 13:14:48;;;;;;;23.98;13.73;;;3.50;99.90;;;;;;5088650;27;20513;-49
2023/01/24 13:17:42;;;;;;;23.88;13.75;;;3.30;99.90;;;;;;5090198;27;20055;-55
2023/01/24 13:20:47;;;;;;;25.35;14.10;;;3.20;99.90;;;;;;5089805;27;20043;-52
2023/01/24 13:23:48;;;;;;;25.40;14.93;;;3.00;99.90;;;;;;5075115;28;20043;-54
2023/01/24 13:26:26;;;;;;;28.45;14.13;;;2.90;99.90;;;;;;5088463;27;20092;-54
2023/01/24 13:28:56;;;;;;;25.13;14.48;;;2.80;99.90;;;;;;5070682;27;20043;-47
2023/01/24 13:31:29;;;;;;;24.85;14.05;;;2.70;99.90;;;;;;5092199;27;20054;-49
2023/01/24 13:34:18;;;;;;;23.90;14.32;;;2.80;99.90;;;;;;5091798;27;20502;-48
2023/01/24 13:36:51;;;;;;;26.98;14.77;;;2.70;99.90;;;;;;5076387;27;20139;-47
2023/01/24 13:39:41;;;;;;;23.88;14.00;;;2.70;99.90;;;;;;5081825;27;20046;-46